sensor_id;sensor_type;location;lat;lon;timestamp;temperature;humidity
8537;DHT22;4306;50.210;10.628;2023-10-19T00:02:05;8.90;99.90
8537;DHT22;4306;50.210;10.628;2023-10-19T00:04:34;8.80;99.90
8537;DHT22;4306;50.210;10.628;2023-10-19T00:07:01;8.90;99.90
8537;DHT22;4306;50.210;10.628;2023-10-19T00:09:30;8.80;99.90
8537;DHT22;4306;50.210;10.628;2023-10-19T00:12:04;8.80;99.90
8537;DHT22;4306;50.210;10.628;2023-10-19T00:14:33;8.80;99.90
8537;DHT22;4306;50.210;10.628;2023-10-19T00:17:00;8.80;99.90
8537;DHT22;4306;50.210;10.628;2023-10-19T00:19:33;8.80;99.90
8537;DHT22;4306;50.210;10.628;2023-10-19T00:22:05;8.80;99.90
8537;DHT22;4306;50.210;10.628;2023-10-19T00:24:41;8.80;99.90
8537;DHT22;4306;50.210;10.628;2023-10-19T00:27:07;8.80;99.90
8537;DHT22;4306;50.210;10.628;2023-10-19T00:29:41;8.80;99.90
8537;DHT22;4306;50.210;10.628;2023-10-19T00:32:15;8.80;99.90
8537;DHT22;4306;50.210;10.628;2023-10-19T00:34:44;8.80;99.90
8537;DHT22;4306;50.210;10.628;2023-10-19T00:37:18;8.80;99.90
8537;DHT22;4306;50.210;10.628;2023-10-19T00:39:51;8.80;99.90
8537;DHT22;4306;50.210;10.628;2023-10-19T00:42:20;8.80;99.90
8537;DHT22;4306;50.210;10.628;2023-10-19T00:44:51;8.80;99.90
8537;DHT22;4306;50.210;10.628;2023-10-19T00:47:23;8.80;99.90
8537;DHT22;4306;50.210;10.628;2023-10-19T00:49:55;8.80;99.90
8537;DHT22;4306;50.210;10.628;2023-10-19T00:52:27;8.80;99.90
8537;DHT22;4306;50.210;10.628;2023-10-19T00:54:57;8.70;99.90
8537;DHT22;4306;50.210;10.628;2023-10-19T00:57:25;8.80;99.90
8537;DHT22;4306;50.210;10.628;2023-10-19T01:00:00;8.80;99.90
8537;DHT22;4306;50.210;10.628;2023-10-19T01:02:37;8.70;99.90
8537;DHT22;4306;50.210;10.628;2023-10-19T01:05:10;8.80;99.90
8537;DHT22;4306;50.210;10.628;2023-10-19T01:07:39;8.80;99.90
8537;DHT22;4306;50.210;10.628;2023-10-19T01:10:08;8.80;99.90
8537;DHT22;4306;50.210;10.628;2023-10-19T01:12:37;8.70;99.90
8537;DHT22;4306;50.210;10.628;2023-10-19T01:15:07;8.70;99.90
8537;DHT22;4306;50.210;10.628;2023-10-19T01:17:35;8.70;99.90
8537;DHT22;4306;50.210;10.628;2023-10-19T01:20:07;8.70;99.90
8537;DHT22;4306;50.210;10.628;2023-10-19T01:22:48;8.70;99.90
8537;DHT22;4306;50.210;10.628;2023-10-19T01:25:19;8.70;99.90
8537;DHT22;4306;50.210;10.628;2023-10-19T01:27:50;8.70;99.90
8537;DHT22;4306;50.210;10.628;2023-10-19T01:30:23;8.80;99.90
8537;DHT22;4306;50.210;10.628;2023-10-19T01:32:49;8.80;99.90
8537;DHT22;4306;50.210;10.628;2023-10-19T01:35:17;8.80;99.90
8537;DHT22;4306;50.210;10.628;2023-10-19T01:37:44;8.80;99.90
8537;DHT22;4306;50.210;10.628;2023-10-19T01:40:12;8.70;99.90
8537;DHT22;4306;50.210;10.628;2023-10-19T01:42:45;8.80;99.90
8537;DHT22;4306;50.210;10.628;2023-10-19T01:45:11;8.80;99.90
8537;DHT22;4306;50.210;10.628;2023-10-19T01:47:40;8.80;99.90
8537;DHT22;4306;50.210;10.628;2023-10-19T01:50:07;8.70;99.90
8537;DHT22;4306;50.210;10.628;2023-10-19T01:52:45;8.80;99.90
8537;DHT22;4306;50.210;10.628;2023-10-19T01:55:13;8.80;99.90
8537;DHT22;4306;50.210;10.628;2023-10-19T01:57:46;8.70;99.90
8537;DHT22;4306;50.210;10.628;2023-10-19T02:00:12;8.80;99.90
8537;DHT22;4306;50.210;10.628;2023-10-19T02:02:48;8.80;99.90
8537;DHT22;4306;50.210;10.628;2023-10-19T02:05:15;8.80;99.90
8537;DHT22;4306;50.210;10.628;2023-10-19T02:07:44;8.80;99.90
8537;DHT22;4306;50.210;10.628;2023-10-19T02:10:11;8.80;99.90
8537;DHT22;4306;50.210;10.628;2023-10-19T02:12:38;8.70;99.90
8537;DHT22;4306;50.210;10.628;2023-10-19T02:15:08;8.70;99.90
8537;DHT22;4306;50.210;10.628;2023-10-19T02:17:35;8.60;99.90
8537;DHT22;4306;50.210;10.628;2023-10-19T02:20:00;8.60;99.90
8537;DHT22;4306;50.210;10.628;2023-10-19T02:22:39;8.60;99.90
8537;DHT22;4306;50.210;10.628;2023-10-19T02:25:06;8.70;99.90
8537;DHT22;4306;50.210;10.628;2023-10-19T02:27:33;8.60;99.90
8537;DHT22;4306;50.210;10.628;2023-10-19T02:30:00;8.60;99.90
8537;DHT22;4306;50.210;10.628;2023-10-19T02:32:26;8.60;99.90
8537;DHT22;4306;50.210;10.628;2023-10-19T02:34:54;8.60;99.90
8537;DHT22;4306;50.210;10.628;2023-10-19T02:37:20;8.60;99.90
8537;DHT22;4306;50.210;10.628;2023-10-19T02:39:46;8.60;99.90
8537;DHT22;4306;50.210;10.628;2023-10-19T02:42:12;8.50;99.90
8537;DHT22;4306;50.210;10.628;2023-10-19T02:44:40;8.50;99.90
8537;DHT22;4306;50.210;10.628;2023-10-19T02:47:07;8.50;99.90
8537;DHT22;4306;50.210;10.628;2023-10-19T02:49:35;8.60;99.90
8537;DHT22;4306;50.210;10.628;2023-10-19T02:52:05;8.50;99.90
8537;DHT22;4306;50.210;10.628;2023-10-19T02:54:32;8.50;99.90
8537;DHT22;4306;50.210;10.628;2023-10-19T02:56:58;8.50;99.90
8537;DHT22;4306;50.210;10.628;2023-10-19T02:59:27;8.50;99.90
8537;DHT22;4306;50.210;10.628;2023-10-19T03:01:56;8.50;99.90
8537;DHT22;4306;50.210;10.628;2023-10-19T03:04:26;8.60;99.90
8537;DHT22;4306;50.210;10.628;2023-10-19T03:06:54;8.50;99.90
8537;DHT22;4306;50.210;10.628;2023-10-19T03:09:21;8.50;99.90
8537;DHT22;4306;50.210;10.628;2023-10-19T03:11:50;8.50;99.90
8537;DHT22;4306;50.210;10.628;2023-10-19T03:14:18;8.60;99.90
8537;DHT22;4306;50.210;10.628;2023-10-19T03:16:45;8.50;99.90
8537;DHT22;4306;50.210;10.628;2023-10-19T03:19:13;8.50;99.90
8537;DHT22;4306;50.210;10.628;2023-10-19T03:21:39;8.50;99.90
8537;DHT22;4306;50.210;10.628;2023-10-19T03:24:08;8.50;99.90
8537;DHT22;4306;50.210;10.628;2023-10-19T03:26:48;8.50;99.90
8537;DHT22;4306;50.210;10.628;2023-10-19T03:29:14;8.60;99.90
8537;DHT22;4306;50.210;10.628;2023-10-19T03:31:48;8.60;99.90
8537;DHT22;4306;50.210;10.628;2023-10-19T03:34:16;8.60;99.90
8537;DHT22;4306;50.210;10.628;2023-10-19T03:36:43;8.60;99.90
8537;DHT22;4306;50.210;10.628;2023-10-19T03:39:11;8.60;99.90
8537;DHT22;4306;50.210;10.628;2023-10-19T03:41:39;8.60;99.90
8537;DHT22;4306;50.210;10.628;2023-10-19T03:44:08;8.60;99.90
8537;DHT22;4306;50.210;10.628;2023-10-19T03:46:39;8.60;99.90
8537;DHT22;4306;50.210;10.628;2023-10-19T03:49:19;8.60;99.90
8537;DHT22;4306;50.210;10.628;2023-10-19T03:51:47;8.60;99.90
8537;DHT22;4306;50.210;10.628;2023-10-19T03:54:28;8.60;99.90
8537;DHT22;4306;50.210;10.628;2023-10-19T03:56:58;8.60;99.90
8537;DHT22;4306;50.210;10.628;2023-10-19T03:59:31;8.60;99.90
8537;DHT22;4306;50.210;10.628;2023-10-19T04:01:59;8.60;99.90
8537;DHT22;4306;50.210;10.628;2023-10-19T04:04:34;8.50;99.90
8537;DHT22;4306;50.210;10.628;2023-10-19T04:07:01;8.60;99.90
8537;DHT22;4306;50.210;10.628;2023-10-19T04:09:36;8.60;99.90
8537;DHT22;4306;50.210;10.628;2023-10-19T04:12:22;8.60;99.90
8537;DHT22;4306;50.210;10.628;2023-10-19T04:14:49;8.70;99.90
8537;DHT22;4306;50.210;10.628;2023-10-19T04:17:16;8.60;99.90
8537;DHT22;4306;50.210;10.628;2023-10-19T04:19:48;8.70;99.90
8537;DHT22;4306;50.210;10.628;2023-10-19T04:22:15;8.70;99.90
8537;DHT22;4306;50.210;10.628;2023-10-19T04:24:48;8.70;99.90
8537;DHT22;4306;50.210;10.628;2023-10-19T04:27:15;8.70;99.90
8537;DHT22;4306;50.210;10.628;2023-10-19T04:29:41;8.70;99.90
8537;DHT22;4306;50.210;10.628;2023-10-19T04:32:11;8.70;99.90
8537;DHT22;4306;50.210;10.628;2023-10-19T04:34:39;8.70;99.90
8537;DHT22;4306;50.210;10.628;2023-10-19T04:37:08;8.80;99.90
8537;DHT22;4306;50.210;10.628;2023-10-19T04:39:38;8.80;99.90
8537;DHT22;4306;50.210;10.628;2023-10-19T04:42:05;8.80;99.90
8537;DHT22;4306;50.210;10.628;2023-10-19T04:44:31;8.90;99.90
8537;DHT22;4306;50.210;10.628;2023-10-19T04:47:00;8.80;99.90
8537;DHT22;4306;50.210;10.628;2023-10-19T04:49:26;8.80;99.90
8537;DHT22;4306;50.210;10.628;2023-10-19T04:51:54;8.90;99.90
8537;DHT22;4306;50.210;10.628;2023-10-19T04:54:22;8.90;99.90
8537;DHT22;4306;50.210;10.628;2023-10-19T04:56:49;8.90;99.90
8537;DHT22;4306;50.210;10.628;2023-10-19T04:59:18;8.90;99.90
8537;DHT22;4306;50.210;10.628;2023-10-19T05:01:45;9.00;99.90
8537;DHT22;4306;50.210;10.628;2023-10-19T05:04:11;9.00;99.90
8537;DHT22;4306;50.210;10.628;2023-10-19T05:06:38;9.00;99.90
8537;DHT22;4306;50.210;10.628;2023-10-19T05:09:05;9.00;99.90
8537;DHT22;4306;50.210;10.628;2023-10-19T05:11:34;9.00;99.90
8537;DHT22;4306;50.210;10.628;2023-10-19T05:14:01;9.00;99.90
8537;DHT22;4306;50.210;10.628;2023-10-19T05:16:30;9.00;99.90
8537;DHT22;4306;50.210;10.628;2023-10-19T05:18:57;9.00;99.90
8537;DHT22;4306;50.210;10.628;2023-10-19T05:21:24;9.00;99.90
8537;DHT22;4306;50.210;10.628;2023-10-19T05:23:51;9.00;99.90
8537;DHT22;4306;50.210;10.628;2023-10-19T05:26:18;9.00;99.90
8537;DHT22;4306;50.210;10.628;2023-10-19T05:28:47;8.90;99.90
8537;DHT22;4306;50.210;10.628;2023-10-19T05:31:14;8.90;99.90
8537;DHT22;4306;50.210;10.628;2023-10-19T05:33:41;8.90;99.90
8537;DHT22;4306;50.210;10.628;2023-10-19T05:36:08;8.90;99.90
8537;DHT22;4306;50.210;10.628;2023-10-19T05:38:35;8.90;99.90
8537;DHT22;4306;50.210;10.628;2023-10-19T05:41:02;9.00;99.90
8537;DHT22;4306;50.210;10.628;2023-10-19T05:43:29;8.90;99.90
8537;DHT22;4306;50.210;10.628;2023-10-19T05:45:57;8.90;99.90
8537;DHT22;4306;50.210;10.628;2023-10-19T05:48:25;8.90;99.90
8537;DHT22;4306;50.210;10.628;2023-10-19T05:50:52;8.90;99.90
8537;DHT22;4306;50.210;10.628;2023-10-19T05:53:19;8.90;99.90
8537;DHT22;4306;50.210;10.628;2023-10-19T05:55:47;8.90;99.90
8537;DHT22;4306;50.210;10.628;2023-10-19T05:58:14;8.90;99.90
8537;DHT22;4306;50.210;10.628;2023-10-19T06:00:41;8.90;99.90
8537;DHT22;4306;50.210;10.628;2023-10-19T06:03:10;8.90;99.90
8537;DHT22;4306;50.210;10.628;2023-10-19T06:05:36;8.90;99.90
8537;DHT22;4306;50.210;10.628;2023-10-19T06:08:04;8.90;99.90
8537;DHT22;4306;50.210;10.628;2023-10-19T06:10:30;8.90;99.90
8537;DHT22;4306;50.210;10.628;2023-10-19T06:12:58;8.90;99.90
8537;DHT22;4306;50.210;10.628;2023-10-19T06:15:24;9.00;99.90
8537;DHT22;4306;50.210;10.628;2023-10-19T06:17:51;8.90;99.90
8537;DHT22;4306;50.210;10.628;2023-10-19T06:20:20;8.90;99.90
8537;DHT22;4306;50.210;10.628;2023-10-19T06:22:50;8.90;99.90
8537;DHT22;4306;50.210;10.628;2023-10-19T06:25:17;8.90;99.90
8537;DHT22;4306;50.210;10.628;2023-10-19T06:27:45;8.90;99.90
8537;DHT22;4306;50.210;10.628;2023-10-19T06:30:12;9.00;99.90
8537;DHT22;4306;50.210;10.628;2023-10-19T06:32:47;9.00;99.90
8537;DHT22;4306;50.210;10.628;2023-10-19T06:35:14;9.00;99.90
8537;DHT22;4306;50.210;10.628;2023-10-19T06:37:43;9.00;99.90
8537;DHT22;4306;50.210;10.628;2023-10-19T06:40:10;9.00;99.90
8537;DHT22;4306;50.210;10.628;2023-10-19T06:42:39;9.00;99.90
8537;DHT22;4306;50.210;10.628;2023-10-19T06:45:07;9.00;99.90
8537;DHT22;4306;50.210;10.628;2023-10-19T06:47:35;9.10;99.90
8537;DHT22;4306;50.210;10.628;2023-10-19T06:50:04;9.10;99.90
8537;DHT22;4306;50.210;10.628;2023-10-19T06:52:33;9.10;99.90
8537;DHT22;4306;50.210;10.628;2023-10-19T06:55:03;9.10;99.90
8537;DHT22;4306;50.210;10.628;2023-10-19T06:57:30;9.10;99.90
8537;DHT22;4306;50.210;10.628;2023-10-19T06:59:57;9.20;99.90
8537;DHT22;4306;50.210;10.628;2023-10-19T07:02:24;9.20;99.90
8537;DHT22;4306;50.210;10.628;2023-10-19T07:04:52;9.30;99.90
8537;DHT22;4306;50.210;10.628;2023-10-19T07:07:18;9.20;99.90
8537;DHT22;4306;50.210;10.628;2023-10-19T07:09:45;9.20;99.90
8537;DHT22;4306;50.210;10.628;2023-10-19T07:12:13;9.30;99.90
8537;DHT22;4306;50.210;10.628;2023-10-19T07:14:43;9.40;99.90
8537;DHT22;4306;50.210;10.628;2023-10-19T07:17:10;9.40;99.90
8537;DHT22;4306;50.210;10.628;2023-10-19T07:19:41;9.40;99.90
8537;DHT22;4306;50.210;10.628;2023-10-19T07:22:08;9.40;99.90
8537;DHT22;4306;50.210;10.628;2023-10-19T07:24:36;9.50;99.90
8537;DHT22;4306;50.210;10.628;2023-10-19T07:27:03;9.50;99.90
8537;DHT22;4306;50.210;10.628;2023-10-19T07:29:34;9.50;99.90
8537;DHT22;4306;50.210;10.628;2023-10-19T07:32:02;9.60;99.90
8537;DHT22;4306;50.210;10.628;2023-10-19T07:34:31;9.70;99.90
8537;DHT22;4306;50.210;10.628;2023-10-19T07:36:59;9.70;99.90
8537;DHT22;4306;50.210;10.628;2023-10-19T07:39:26;9.70;99.90
8537;DHT22;4306;50.210;10.628;2023-10-19T07:41:55;9.70;99.90
8537;DHT22;4306;50.210;10.628;2023-10-19T07:44:22;9.80;99.90
8537;DHT22;4306;50.210;10.628;2023-10-19T07:46:50;9.80;99.90
8537;DHT22;4306;50.210;10.628;2023-10-19T07:49:17;9.80;99.90
8537;DHT22;4306;50.210;10.628;2023-10-19T07:51:45;9.90;99.90
8537;DHT22;4306;50.210;10.628;2023-10-19T07:54:13;10.00;99.90
8537;DHT22;4306;50.210;10.628;2023-10-19T07:56:41;10.00;99.90
8537;DHT22;4306;50.210;10.628;2023-10-19T07:59:09;10.00;99.90
8537;DHT22;4306;50.210;10.628;2023-10-19T08:01:42;10.10;99.90
8537;DHT22;4306;50.210;10.628;2023-10-19T08:04:11;10.10;99.90
8537;DHT22;4306;50.210;10.628;2023-10-19T08:06:38;10.10;99.90
8537;DHT22;4306;50.210;10.628;2023-10-19T08:09:04;10.20;99.90
8537;DHT22;4306;50.210;10.628;2023-10-19T08:11:32;10.10;99.90
8537;DHT22;4306;50.210;10.628;2023-10-19T08:13:59;10.20;99.90
8537;DHT22;4306;50.210;10.628;2023-10-19T08:16:26;10.30;99.90
8537;DHT22;4306;50.210;10.628;2023-10-19T08:18:53;10.30;99.90
8537;DHT22;4306;50.210;10.628;2023-10-19T08:21:21;10.30;99.90
8537;DHT22;4306;50.210;10.628;2023-10-19T08:23:48;10.30;99.90
8537;DHT22;4306;50.210;10.628;2023-10-19T08:26:15;10.30;99.90
8537;DHT22;4306;50.210;10.628;2023-10-19T08:28:42;10.40;99.90
8537;DHT22;4306;50.210;10.628;2023-10-19T08:31:09;10.50;99.90
8537;DHT22;4306;50.210;10.628;2023-10-19T08:33:36;10.40;99.90
8537;DHT22;4306;50.210;10.628;2023-10-19T08:36:05;10.40;99.90
8537;DHT22;4306;50.210;10.628;2023-10-19T08:38:33;10.50;99.90
8537;DHT22;4306;50.210;10.628;2023-10-19T08:41:00;10.60;99.90
8537;DHT22;4306;50.210;10.628;2023-10-19T08:43:28;10.70;99.90
8537;DHT22;4306;50.210;10.628;2023-10-19T08:45:59;10.70;99.90
8537;DHT22;4306;50.210;10.628;2023-10-19T08:48:26;10.70;99.90
8537;DHT22;4306;50.210;10.628;2023-10-19T08:50:54;10.70;99.90
8537;DHT22;4306;50.210;10.628;2023-10-19T08:53:22;10.60;99.90
8537;DHT22;4306;50.210;10.628;2023-10-19T08:55:52;10.70;99.90
8537;DHT22;4306;50.210;10.628;2023-10-19T08:58:19;10.70;99.90
8537;DHT22;4306;50.210;10.628;2023-10-19T09:00:48;10.70;99.90
8537;DHT22;4306;50.210;10.628;2023-10-19T09:03:19;10.70;99.90
8537;DHT22;4306;50.210;10.628;2023-10-19T09:05:47;10.70;99.90
8537;DHT22;4306;50.210;10.628;2023-10-19T09:08:15;10.70;99.90
8537;DHT22;4306;50.210;10.628;2023-10-19T09:10:44;10.60;99.90
8537;DHT22;4306;50.210;10.628;2023-10-19T09:13:13;10.60;99.90
8537;DHT22;4306;50.210;10.628;2023-10-19T09:15:44;10.60;99.90
8537;DHT22;4306;50.210;10.628;2023-10-19T09:18:14;10.80;99.90
8537;DHT22;4306;50.210;10.628;2023-10-19T09:20:42;10.80;99.90
8537;DHT22;4306;50.210;10.628;2023-10-19T09:23:19;10.90;99.90
8537;DHT22;4306;50.210;10.628;2023-10-19T09:25:47;11.00;99.90
8537;DHT22;4306;50.210;10.628;2023-10-19T09:28:15;11.10;99.90
8537;DHT22;4306;50.210;10.628;2023-10-19T09:30:43;11.10;99.90
8537;DHT22;4306;50.210;10.628;2023-10-19T09:33:11;11.20;99.90
8537;DHT22;4306;50.210;10.628;2023-10-19T09:35:40;11.20;99.90
8537;DHT22;4306;50.210;10.628;2023-10-19T09:38:08;11.20;99.90
8537;DHT22;4306;50.210;10.628;2023-10-19T09:40:36;11.30;99.90
8537;DHT22;4306;50.210;10.628;2023-10-19T09:43:04;11.30;99.90
8537;DHT22;4306;50.210;10.628;2023-10-19T09:45:41;11.40;99.90
8537;DHT22;4306;50.210;10.628;2023-10-19T09:48:08;11.30;99.90
8537;DHT22;4306;50.210;10.628;2023-10-19T09:50:43;11.40;99.90
8537;DHT22;4306;50.210;10.628;2023-10-19T09:53:11;11.40;99.90
8537;DHT22;4306;50.210;10.628;2023-10-19T09:55:40;11.40;99.90
8537;DHT22;4306;50.210;10.628;2023-10-19T09:58:12;11.30;99.90
8537;DHT22;4306;50.210;10.628;2023-10-19T10:00:44;11.30;99.90
8537;DHT22;4306;50.210;10.628;2023-10-19T10:03:42;11.30;99.90
8537;DHT22;4306;50.210;10.628;2023-10-19T10:06:09;11.40;99.90
8537;DHT22;4306;50.210;10.628;2023-10-19T10:08:38;11.50;99.90
8537;DHT22;4306;50.210;10.628;2023-10-19T10:11:18;11.50;99.90
8537;DHT22;4306;50.210;10.628;2023-10-19T10:13:45;11.70;99.90
8537;DHT22;4306;50.210;10.628;2023-10-19T10:16:18;11.70;99.90
8537;DHT22;4306;50.210;10.628;2023-10-19T10:18:47;11.80;99.90
8537;DHT22;4306;50.210;10.628;2023-10-19T10:21:16;11.90;99.90
8537;DHT22;4306;50.210;10.628;2023-10-19T10:23:44;11.90;99.90
8537;DHT22;4306;50.210;10.628;2023-10-19T10:26:14;11.90;99.90
8537;DHT22;4306;50.210;10.628;2023-10-19T10:28:41;12.00;99.90
8537;DHT22;4306;50.210;10.628;2023-10-19T10:31:14;12.00;99.90
8537;DHT22;4306;50.210;10.628;2023-10-19T10:33:44;12.10;99.90
8537;DHT22;4306;50.210;10.628;2023-10-19T10:36:12;12.10;99.90
8537;DHT22;4306;50.210;10.628;2023-10-19T10:38:40;12.20;99.90
8537;DHT22;4306;50.210;10.628;2023-10-19T10:41:08;12.20;99.90
8537;DHT22;4306;50.210;10.628;2023-10-19T10:43:50;12.20;99.90
8537;DHT22;4306;50.210;10.628;2023-10-19T10:46:18;12.20;99.90
8537;DHT22;4306;50.210;10.628;2023-10-19T10:48:47;12.30;99.90
8537;DHT22;4306;50.210;10.628;2023-10-19T10:51:18;12.30;99.90
8537;DHT22;4306;50.210;10.628;2023-10-19T10:53:50;12.40;99.90
8537;DHT22;4306;50.210;10.628;2023-10-19T10:56:18;12.40;99.90
8537;DHT22;4306;50.210;10.628;2023-10-19T10:58:46;12.30;99.90
8537;DHT22;4306;50.210;10.628;2023-10-19T11:01:14;12.30;99.90
8537;DHT22;4306;50.210;10.628;2023-10-19T11:03:41;12.30;99.90
8537;DHT22;4306;50.210;10.628;2023-10-19T11:06:10;12.40;99.90
8537;DHT22;4306;50.210;10.628;2023-10-19T11:08:38;12.30;99.90
8537;DHT22;4306;50.210;10.628;2023-10-19T11:11:06;12.40;99.90
8537;DHT22;4306;50.210;10.628;2023-10-19T11:13:36;12.50;99.90
8537;DHT22;4306;50.210;10.628;2023-10-19T11:16:05;12.50;99.90
8537;DHT22;4306;50.210;10.628;2023-10-19T11:18:34;12.60;99.90
8537;DHT22;4306;50.210;10.628;2023-10-19T11:21:05;12.50;99.90
8537;DHT22;4306;50.210;10.628;2023-10-19T11:23:41;12.50;99.90
8537;DHT22;4306;50.210;10.628;2023-10-19T11:26:09;12.60;99.90
8537;DHT22;4306;50.210;10.628;2023-10-19T11:28:37;12.70;99.90
8537;DHT22;4306;50.210;10.628;2023-10-19T11:31:13;12.70;99.90
8537;DHT22;4306;50.210;10.628;2023-10-19T11:33:41;12.70;99.90
8537;DHT22;4306;50.210;10.628;2023-10-19T11:36:09;12.70;99.90
8537;DHT22;4306;50.210;10.628;2023-10-19T11:38:42;12.70;99.90
8537;DHT22;4306;50.210;10.628;2023-10-19T11:41:10;12.80;99.90
8537;DHT22;4306;50.210;10.628;2023-10-19T11:43:38;12.90;99.90
8537;DHT22;4306;50.210;10.628;2023-10-19T11:46:05;12.80;99.90
8537;DHT22;4306;50.210;10.628;2023-10-19T11:48:33;12.80;99.90
8537;DHT22;4306;50.210;10.628;2023-10-19T11:51:01;12.80;99.90
8537;DHT22;4306;50.210;10.628;2023-10-19T11:53:33;12.80;99.90
8537;DHT22;4306;50.210;10.628;2023-10-19T11:56:02;12.90;99.90
8537;DHT22;4306;50.210;10.628;2023-10-19T11:58:31;12.90;99.90
8537;DHT22;4306;50.210;10.628;2023-10-19T12:01:00;13.00;99.90
8537;DHT22;4306;50.210;10.628;2023-10-19T12:03:28;13.00;99.90
8537;DHT22;4306;50.210;10.628;2023-10-19T12:05:55;13.00;99.90
8537;DHT22;4306;50.210;10.628;2023-10-19T12:08:22;13.20;99.90
8537;DHT22;4306;50.210;10.628;2023-10-19T12:10:50;13.30;99.90
8537;DHT22;4306;50.210;10.628;2023-10-19T12:13:19;13.40;99.90
8537;DHT22;4306;50.210;10.628;2023-10-19T12:15:46;13.40;99.90
8537;DHT22;4306;50.210;10.628;2023-10-19T12:18:18;13.50;99.90
8537;DHT22;4306;50.210;10.628;2023-10-19T12:20:46;13.40;99.90
8537;DHT22;4306;50.210;10.628;2023-10-19T12:23:13;13.50;99.90
8537;DHT22;4306;50.210;10.628;2023-10-19T12:25:40;13.50;99.90
8537;DHT22;4306;50.210;10.628;2023-10-19T12:28:08;13.60;99.90
8537;DHT22;4306;50.210;10.628;2023-10-19T12:30:43;13.70;99.90
8537;DHT22;4306;50.210;10.628;2023-10-19T12:33:10;13.60;99.90
8537;DHT22;4306;50.210;10.628;2023-10-19T12:35:42;13.60;99.90
8537;DHT22;4306;50.210;10.628;2023-10-19T12:38:11;13.60;99.90
8537;DHT22;4306;50.210;10.628;2023-10-19T12:40:43;13.60;99.90
8537;DHT22;4306;50.210;10.628;2023-10-19T12:43:12;13.60;99.90
8537;DHT22;4306;50.210;10.628;2023-10-19T12:45:41;13.60;99.90
8537;DHT22;4306;50.210;10.628;2023-10-19T12:48:09;13.70;99.90
8537;DHT22;4306;50.210;10.628;2023-10-19T12:50:37;13.80;99.90
8537;DHT22;4306;50.210;10.628;2023-10-19T12:53:07;13.70;99.90
8537;DHT22;4306;50.210;10.628;2023-10-19T12:55:34;13.80;99.90
8537;DHT22;4306;50.210;10.628;2023-10-19T12:58:03;13.80;99.90
8537;DHT22;4306;50.210;10.628;2023-10-19T13:00:34;13.80;99.90
8537;DHT22;4306;50.210;10.628;2023-10-19T13:03:11;13.80;99.90
8537;DHT22;4306;50.210;10.628;2023-10-19T13:05:42;13.90;99.90
8537;DHT22;4306;50.210;10.628;2023-10-19T13:08:10;13.80;99.90
8537;DHT22;4306;50.210;10.628;2023-10-19T13:10:39;13.80;99.90
8537;DHT22;4306;50.210;10.628;2023-10-19T13:13:09;13.70;99.90
8537;DHT22;4306;50.210;10.628;2023-10-19T13:15:38;13.70;99.90
8537;DHT22;4306;50.210;10.628;2023-10-19T13:18:06;13.70;99.90
8537;DHT22;4306;50.210;10.628;2023-10-19T13:20:37;13.70;99.90
8537;DHT22;4306;50.210;10.628;2023-10-19T13:23:05;13.70;99.90
8537;DHT22;4306;50.210;10.628;2023-10-19T13:25:37;13.80;99.90
8537;DHT22;4306;50.210;10.628;2023-10-19T13:28:13;13.70;99.90
8537;DHT22;4306;50.210;10.628;2023-10-19T13:30:41;13.70;99.90
8537;DHT22;4306;50.210;10.628;2023-10-19T13:33:08;13.60;99.90
8537;DHT22;4306;50.210;10.628;2023-10-19T13:35:38;13.60;99.90
8537;DHT22;4306;50.210;10.628;2023-10-19T13:38:05;13.60;99.90
8537;DHT22;4306;50.210;10.628;2023-10-19T13:40:33;13.70;99.90
8537;DHT22;4306;50.210;10.628;2023-10-19T13:43:01;13.60;99.90
8537;DHT22;4306;50.210;10.628;2023-10-19T13:45:32;13.60;99.90
8537;DHT22;4306;50.210;10.628;2023-10-19T13:47:59;13.60;99.90
8537;DHT22;4306;50.210;10.628;2023-10-19T13:50:26;13.70;99.90
8537;DHT22;4306;50.210;10.628;2023-10-19T13:52:54;13.70;99.90
8537;DHT22;4306;50.210;10.628;2023-10-19T13:55:22;13.70;99.90
8537;DHT22;4306;50.210;10.628;2023-10-19T13:57:49;13.70;99.90
8537;DHT22;4306;50.210;10.628;2023-10-19T14:00:18;13.70;99.90
8537;DHT22;4306;50.210;10.628;2023-10-19T14:02:50;13.70;99.90
8537;DHT22;4306;50.210;10.628;2023-10-19T14:05:18;13.70;99.90
8537;DHT22;4306;50.210;10.628;2023-10-19T14:07:45;13.70;99.90
8537;DHT22;4306;50.210;10.628;2023-10-19T14:10:14;13.70;99.90
8537;DHT22;4306;50.210;10.628;2023-10-19T14:12:42;13.80;99.90
8537;DHT22;4306;50.210;10.628;2023-10-19T14:15:14;13.80;99.90
8537;DHT22;4306;50.210;10.628;2023-10-19T14:17:41;13.70;99.90
8537;DHT22;4306;50.210;10.628;2023-10-19T14:20:09;13.70;99.90
8537;DHT22;4306;50.210;10.628;2023-10-19T14:22:43;13.80;99.90
8537;DHT22;4306;50.210;10.628;2023-10-19T14:25:11;13.80;99.90
8537;DHT22;4306;50.210;10.628;2023-10-19T14:27:41;13.80;99.90
8537;DHT22;4306;50.210;10.628;2023-10-19T14:30:09;13.80;99.90
8537;DHT22;4306;50.210;10.628;2023-10-19T14:32:37;13.80;99.90
8537;DHT22;4306;50.210;10.628;2023-10-19T14:35:05;13.80;99.90
8537;DHT22;4306;50.210;10.628;2023-10-19T14:37:35;13.80;99.90
8537;DHT22;4306;50.210;10.628;2023-10-19T14:40:08;13.80;99.90
8537;DHT22;4306;50.210;10.628;2023-10-19T14:42:36;13.70;99.90
8537;DHT22;4306;50.210;10.628;2023-10-19T14:45:07;13.70;99.90
8537;DHT22;4306;50.210;10.628;2023-10-19T14:47:36;13.80;99.90
8537;DHT22;4306;50.210;10.628;2023-10-19T14:50:03;13.90;99.90
8537;DHT22;4306;50.210;10.628;2023-10-19T14:52:30;13.80;99.90
8537;DHT22;4306;50.210;10.628;2023-10-19T14:54:57;13.70;99.90
8537;DHT22;4306;50.210;10.628;2023-10-19T14:57:25;13.70;99.90
8537;DHT22;4306;50.210;10.628;2023-10-19T14:59:52;13.80;99.90
8537;DHT22;4306;50.210;10.628;2023-10-19T15:02:20;13.80;99.90
8537;DHT22;4306;50.210;10.628;2023-10-19T15:04:49;13.90;99.90
8537;DHT22;4306;50.210;10.628;2023-10-19T15:07:17;13.90;99.90
8537;DHT22;4306;50.210;10.628;2023-10-19T15:09:44;13.80;99.90
8537;DHT22;4306;50.210;10.628;2023-10-19T15:12:11;13.70;99.90
8537;DHT22;4306;50.210;10.628;2023-10-19T15:14:40;13.80;99.90
8537;DHT22;4306;50.210;10.628;2023-10-19T15:17:08;13.80;99.90
8537;DHT22;4306;50.210;10.628;2023-10-19T15:19:37;13.60;99.90
8537;DHT22;4306;50.210;10.628;2023-10-19T15:22:04;13.60;99.90
8537;DHT22;4306;50.210;10.628;2023-10-19T15:24:30;13.40;99.90
8537;DHT22;4306;50.210;10.628;2023-10-19T15:26:57;13.40;99.90
8537;DHT22;4306;50.210;10.628;2023-10-19T15:29:26;13.40;99.90
8537;DHT22;4306;50.210;10.628;2023-10-19T15:31:54;13.30;99.90
8537;DHT22;4306;50.210;10.628;2023-10-19T15:34:21;13.30;99.90
8537;DHT22;4306;50.210;10.628;2023-10-19T15:36:50;13.40;99.90
8537;DHT22;4306;50.210;10.628;2023-10-19T15:39:17;13.40;99.90
8537;DHT22;4306;50.210;10.628;2023-10-19T15:41:44;13.40;99.90
8537;DHT22;4306;50.210;10.628;2023-10-19T15:44:11;13.20;99.90
8537;DHT22;4306;50.210;10.628;2023-10-19T15:46:38;13.20;99.90
8537;DHT22;4306;50.210;10.628;2023-10-19T15:49:08;13.20;99.90
8537;DHT22;4306;50.210;10.628;2023-10-19T15:51:35;13.00;99.90
8537;DHT22;4306;50.210;10.628;2023-10-19T15:54:03;13.10;99.90
8537;DHT22;4306;50.210;10.628;2023-10-19T15:56:31;13.00;99.90
8537;DHT22;4306;50.210;10.628;2023-10-19T15:58:59;13.00;99.90
8537;DHT22;4306;50.210;10.628;2023-10-19T16:01:26;13.10;99.90
8537;DHT22;4306;50.210;10.628;2023-10-19T16:03:54;13.10;99.90
8537;DHT22;4306;50.210;10.628;2023-10-19T16:06:21;13.10;99.90